Time;durP1;ratioP1;P1;durP2;ratioP2;P2;SDS_P1;SDS_P2;PMS_P1;PMS_P2;Temp;Humidity;BMP_temperature;BMP_pressure;BME280_temperature;BME280_humidity;BME280_pressure;Samples;Min_cycle;Max_cycle;Signal;HPM_P1;HPM_P2
2023/12/27 00:01:23;;;;;;;5.40;2.60;;;;;;;2.53;100.00;97299.25;5091335;28;20282;-57
2023/12/27 00:03:50;;;;;;;4.63;2.63;;;;;;;2.54;100.00;97290.50;5083035;28;20666;-55
2023/12/27 00:06:17;;;;;;;3.50;3.20;;;;;;;2.56;100.00;97281.66;5082773;28;20202;-55
2023/12/27 00:08:43;;;;;;;5.20;2.50;;;;;;;2.56;100.00;97279.06;5082432;28;20212;-55
2023/12/27 00:11:11;;;;;;;3.60;2.80;;;;;;;2.58;100.00;97295.50;5082664;28;20212;-57
2023/12/27 00:13:38;;;;;;;5.03;3.30;;;;;;;2.70;100.00;97297.47;5081727;28;20543;-55
2023/12/27 00:16:05;;;;;;;3.93;2.67;;;;;;;2.67;100.00;97292.41;5082255;28;20216;-57
2023/12/27 00:18:32;;;;;;;4.43;2.60;;;;;;;2.70;100.00;97281.78;5082078;28;20206;-57
2023/12/27 00:20:58;;;;;;;4.13;2.97;;;;;;;2.72;100.00;97282.56;5081517;28;21409;-57
2023/12/27 00:23:26;;;;;;;3.30;2.43;;;;;;;2.73;100.00;97284.25;5081070;28;20221;-57
2023/12/27 00:25:52;;;;;;;2.67;2.47;;;;;;;2.66;100.00;97274.22;5081254;28;20206;-57
2023/12/27 00:28:20;;;;;;;2.83;2.33;;;;;;;2.69;100.00;97276.66;5080784;28;20199;-57
2023/12/27 00:30:48;;;;;;;3.90;2.57;;;;;;;2.70;100.00;97281.78;5081580;28;20201;-55
2023/12/27 00:33:15;;;;;;;2.80;2.60;;;;;;;2.66;100.00;97285.47;5081464;28;20209;-58
2023/12/27 00:35:42;;;;;;;5.57;2.80;;;;;;;2.66;100.00;97280.25;5081939;28;20197;-57
2023/12/27 00:38:09;;;;;;;4.93;3.00;;;;;;;2.67;100.00;97291.56;5081357;28;20210;-56
2023/12/27 00:40:36;;;;;;;4.57;3.37;;;;;;;2.73;100.00;97289.47;5081959;28;20202;-57
2023/12/27 00:43:03;;;;;;;3.80;3.50;;;;;;;2.73;100.00;97292.06;5086453;28;20193;-57
2023/12/27 00:45:31;;;;;;;3.63;3.33;;;;;;;2.68;100.00;97296.72;5086379;28;20214;-56
2023/12/27 00:47:57;;;;;;;4.20;3.80;;;;;;;2.66;100.00;97295.94;5086627;28;20206;-57
2023/12/27 00:50:24;;;;;;;4.70;4.00;;;;;;;2.62;100.00;97289.19;5086354;28;20206;-56
2023/12/27 00:52:50;;;;;;;6.87;4.47;;;;;;;2.61;100.00;97292.72;5087006;28;20208;-55
2023/12/27 00:55:17;;;;;;;5.43;3.60;;;;;;;2.64;100.00;97282.13;5091357;28;20213;-55
2023/12/27 00:57:43;;;;;;;3.50;3.20;;;;;;;2.58;100.00;97281.59;5085870;28;20197;-57
2023/12/27 01:00:11;;;;;;;5.77;3.93;;;;;;;2.53;100.00;97279.22;5085035;28;20237;-56
2023/12/27 01:02:40;;;;;;;4.50;3.47;;;;;;;2.56;100.00;97283.44;5086370;28;20212;-56
2023/12/27 01:05:08;;;;;;;6.97;3.97;;;;;;;2.54;100.00;97280.06;5085881;28;20225;-57
2023/12/27 01:07:35;;;;;;;4.67;4.23;;;;;;;2.49;100.00;97272.47;5085991;28;20197;-57
2023/12/27 01:10:02;;;;;;;5.27;3.77;;;;;;;2.55;100.00;97271.31;5086019;28;20215;-55
2023/12/27 01:12:29;;;;;;;3.80;3.50;;;;;;;2.45;100.00;97263.09;5085846;28;20198;-57
2023/12/27 01:14:56;;;;;;;6.57;3.90;;;;;;;2.45;100.00;97257.88;5085396;28;20202;-56
2023/12/27 01:17:23;;;;;;;6.30;4.10;;;;;;;2.33;100.00;97264.59;5086192;28;20236;-56
2023/12/27 01:19:51;;;;;;;4.03;3.63;;;;;;;2.37;100.00;97265.28;5085001;28;20259;-56
2023/12/27 01:22:17;;;;;;;5.90;3.73;;;;;;;2.36;100.00;97279.22;5085294;28;20198;-56
2023/12/27 01:24:44;;;;;;;5.70;3.70;;;;;;;2.42;100.00;97279.75;5084880;28;20221;-55
2023/12/27 01:27:10;;;;;;;5.60;3.13;;;;;;;2.45;100.00;97274.38;5085276;28;20209;-57
2023/12/27 01:29:43;;;;;;;3.77;2.70;;;;;;;2.42;100.00;97271.94;5084408;28;20352;-57
2023/12/27 01:32:10;;;;;;;3.87;3.50;;;;;;;2.46;100.00;97277.84;5085808;28;20202;-58
2023/12/27 01:34:38;;;;;;;3.00;2.70;;;;;;;2.55;100.00;97274.75;5085258;28;20234;-57
2023/12/27 01:37:06;;;;;;;3.67;3.10;;;;;;;2.43;100.00;97278.00;5085041;28;20751;-57
2023/12/27 01:39:32;;;;;;;2.87;2.67;;;;;;;2.44;100.00;97269.25;5084385;28;20198;-57
2023/12/27 01:41:59;;;;;;;3.80;2.90;;;;;;;2.41;100.00;97272.00;5084597;28;20207;-58
2023/12/27 01:44:26;;;;;;;4.30;2.90;;;;;;;2.31;100.00;97276.00;5084648;28;20236;-57
2023/12/27 01:46:52;;;;;;;7.83;3.23;;;;;;;2.23;100.00;97275.56;5085311;28;20328;-57
2023/12/27 01:49:19;;;;;;;3.73;3.20;;;;;;;2.29;100.00;97275.25;5084773;28;20201;-57
2023/12/27 01:51:45;;;;;;;6.03;3.57;;;;;;;2.38;100.00;97266.94;5085185;28;20206;-56
2023/12/27 01:54:14;;;;;;;5.10;3.50;;;;;;;2.31;100.00;97273.38;5084910;28;20194;-57
2023/12/27 01:56:43;;;;;;;5.20;3.57;;;;;;;2.22;100.00;97274.72;5084051;28;20581;-56
2023/12/27 01:59:10;;;;;;;5.37;3.97;;;;;;;2.19;100.00;97271.41;5083892;28;20231;-57
2023/12/27 02:01:37;;;;;;;4.07;3.77;;;;;;;2.13;100.00;97269.09;5084593;28;20209;-57
2023/12/27 02:04:03;;;;;;;4.20;3.80;;;;;;;2.16;100.00;97268.97;5084767;28;20206;-57
2023/12/27 02:06:30;;;;;;;4.23;3.40;;;;;;;2.09;100.00;97267.56;5085034;28;20216;-56
2023/12/27 02:08:57;;;;;;;4.27;3.23;;;;;;;2.14;100.00;97270.78;5085044;28;20543;-57
2023/12/27 02:11:24;;;;;;;4.90;2.87;;;;;;;2.06;100.00;97275.53;5087474;28;20204;-56
2023/12/27 02:13:51;;;;;;;3.93;2.60;;;;;;;2.12;100.00;97273.50;5091170;28;20203;-57
2023/12/27 02:16:20;;;;;;;5.27;2.40;;;;;;;2.18;100.00;97267.09;5090983;28;20357;-56
2023/12/27 02:18:48;;;;;;;5.73;3.00;;;;;;;2.25;100.00;97274.56;5088959;28;20214;-57
2023/12/27 02:21:15;;;;;;;4.17;2.73;;;;;;;2.25;100.00;97263.28;5083831;28;20210;-57
2023/12/27 02:23:42;;;;;;;3.37;2.60;;;;;;;2.20;100.00;97267.84;5083646;28;20206;-57
2023/12/27 02:26:10;;;;;;;2.83;2.37;;;;;;;2.25;100.00;97268.50;5083820;28;20576;-57
2023/12/27 02:28:37;;;;;;;4.47;2.70;;;;;;;2.29;100.00;97260.44;5083893;28;20212;-57
2023/12/27 02:31:04;;;;;;;3.50;2.67;;;;;;;2.32;100.00;97249.00;5083648;28;20208;-57
2023/12/27 02:33:30;;;;;;;5.60;2.70;;;;;;;2.33;100.00;97250.69;5085082;28;20296;-55
2023/12/27 02:35:57;;;;;;;4.57;2.87;;;;;;;2.26;100.00;97244.09;5084869;28;20208;-56
2023/12/27 02:38:23;;;;;;;6.23;2.20;;;;;;;2.26;100.00;97251.91;5085085;28;20212;-55
2023/12/27 02:40:55;;;;;;;3.47;2.17;;;;;;;2.33;100.00;97245.47;5083789;28;20218;-57
2023/12/27 02:43:26;;;;;;;4.07;2.37;;;;;;;2.32;100.00;97241.16;5083969;28;20287;-57
2023/12/27 02:45:52;;;;;;;6.47;2.67;;;;;;;2.33;100.00;97241.09;5083633;28;20210;-56
2023/12/27 02:48:19;;;;;;;2.70;2.10;;;;;;;2.26;100.00;97241.47;5083579;28;20217;-57
2023/12/27 02:50:45;;;;;;;5.23;2.47;;;;;;;2.36;100.00;97245.31;5083513;28;20214;-56
2023/12/27 02:53:12;;;;;;;2.87;1.90;;;;;;;2.38;100.00;97246.06;5083464;28;20198;-59
2023/12/27 02:55:40;;;;;;;3.20;2.47;;;;;;;2.29;100.00;97241.31;5083373;28;20191;-57
2023/12/27 02:58:06;;;;;;;2.53;2.13;;;;;;;2.39;100.00;97245.16;5083351;28;20206;-57
2023/12/27 03:00:37;;;;;;;3.17;2.30;;;;;;;2.28;100.00;97237.88;5082665;28;20226;-57
2023/12/27 03:03:05;;;;;;;5.53;2.50;;;;;;;2.25;100.00;97237.19;5083306;28;20206;-57
2023/12/27 03:05:31;;;;;;;2.57;2.20;;;;;;;2.12;100.00;97236.97;5082891;28;20225;-57
2023/12/27 03:07:58;;;;;;;2.63;2.40;;;;;;;2.28;100.00;97229.19;5082994;28;20211;-56
2023/12/27 03:10:24;;;;;;;4.47;2.30;;;;;;;2.16;100.00;97228.03;5082806;28;20198;-57
2023/12/27 03:12:51;;;;;;;2.73;2.53;;;;;;;2.20;100.00;97231.34;5083357;28;20210;-57
2023/12/27 03:15:18;;;;;;;4.17;2.93;;;;;;;2.17;100.00;97221.06;5082595;28;20198;-57
2023/12/27 03:17:46;;;;;;;3.87;2.80;;;;;;;2.13;100.00;97216.91;5082787;28;20214;-57
2023/12/27 03:20:13;;;;;;;4.13;2.60;;;;;;;2.13;100.00;97216.91;5082421;28;20528;-57
2023/12/27 03:22:39;;;;;;;2.97;2.77;;;;;;;2.10;100.00;97219.69;5082356;28;20194;-58
2023/12/27 03:25:06;;;;;;;3.70;2.67;;;;;;;2.04;100.00;97214.78;5082463;28;20233;-57
2023/12/27 03:27:33;;;;;;;3.00;2.70;;;;;;;2.09;100.00;97210.19;5082105;28;20204;-57
2023/12/27 03:29:59;;;;;;;4.07;3.00;;;;;;;2.05;100.00;97216.47;5082449;28;20198;-57
2023/12/27 03:32:26;;;;;;;3.00;2.80;;;;;;;2.07;100.00;97218.06;5082920;28;20616;-57
2023/12/27 03:34:54;;;;;;;3.20;2.90;;;;;;;2.10;100.00;97217.06;5082759;28;20214;-57
2023/12/27 03:37:20;;;;;;;4.90;3.00;;;;;;;2.14;100.00;97213.38;5082194;28;20205;-55
2023/12/27 03:39:50;;;;;;;4.03;2.70;;;;;;;2.18;100.00;97213.16;5082583;28;20210;-56
2023/12/27 03:42:19;;;;;;;4.00;2.63;;;;;;;2.14;100.00;97202.94;5081307;28;20210;-55
2023/12/27 03:44:46;;;;;;;5.00;2.33;;;;;;;2.12;100.00;97205.66;5082779;28;20218;-57
2023/12/27 03:47:12;;;;;;;7.97;2.70;;;;;;;2.09;100.00;97195.34;5082182;28;20202;-57
2023/12/27 03:49:39;;;;;;;2.50;2.30;;;;;;;2.04;100.00;97191.31;5082596;28;20289;-57
2023/12/27 03:52:07;;;;;;;3.07;2.77;;;;;;;2.02;100.00;97193.16;5082122;28;20285;-57
2023/12/27 03:54:34;;;;;;;4.77;2.90;;;;;;;1.94;100.00;97194.38;5081750;28;20656;-56
2023/12/27 03:57:00;;;;;;;2.50;2.30;;;;;;;1.89;100.00;97198.97;5082158;28;20198;-57
2023/12/27 03:59:27;;;;;;;2.67;2.47;;;;;;;1.97;100.00;97207.28;5080906;28;20915;-57
2023/12/27 04:01:53;;;;;;;2.57;2.37;;;;;;;1.94;100.00;97210.03;5082198;28;20216;-57
2023/12/27 04:04:20;;;;;;;4.83;2.83;;;;;;;1.97;100.00;97207.28;5081482;28;20220;-57
2023/12/27 04:06:46;;;;;;;3.70;2.77;;;;;;;2.07;100.00;97222.44;5081839;28;20222;-57
2023/12/27 04:09:14;;;;;;;2.60;2.40;;;;;;;2.06;100.00;97212.91;5082143;28;20202;-57
2023/12/27 04:11:44;;;;;;;4.47;2.77;;;;;;;2.11;100.00;97213.56;5081352;28;20209;-57
2023/12/27 04:14:11;;;;;;;3.13;2.80;;;;;;;2.10;100.00;97206.63;5081172;28;20210;-57
2023/12/27 04:16:38;;;;;;;3.57;2.60;;;;;;;2.04;100.00;97193.91;5080668;28;20532;-57
2023/12/27 04:19:04;;;;;;;4.00;2.83;;;;;;;2.07;100.00;97198.97;5081387;28;20508;-57
2023/12/27 04:21:31;;;;;;;3.10;2.80;;;;;;;2.07;100.00;97199.81;5081569;28;20764;-55
2023/12/27 04:23:58;;;;;;;5.20;3.10;;;;;;;2.14;100.00;97205.56;5081852;28;20206;-57
2023/12/27 04:26:27;;;;;;;3.43;2.87;;;;;;;2.16;100.00;97211.56;5082002;28;20220;-57
2023/12/27 04:28:54;;;;;;;3.80;3.50;;;;;;;2.16;100.00;97211.56;5082456;28;20202;-57
2023/12/27 04:31:20;;;;;;;5.60;3.43;;;;;;;2.17;100.00;97203.63;5086714;28;20525;-57
2023/12/27 04:33:47;;;;;;;3.17;2.93;;;;;;;2.15;100.00;97204.66;5090858;28;20199;-56
2023/12/27 04:36:13;;;;;;;4.43;2.77;;;;;;;2.10;100.00;97210.09;5090163;28;20682;-56
2023/12/27 04:38:40;;;;;;;4.73;2.77;;;;;;;2.09;100.00;97207.59;5089742;28;20270;-57
2023/12/27 04:41:08;;;;;;;3.70;2.63;;;;;;;2.08;100.00;97198.06;5083926;28;20212;-56
2023/12/27 04:43:36;;;;;;;3.67;2.80;;;;;;;2.15;100.00;97196.81;5081533;28;20213;-57
2023/12/27 04:46:03;;;;;;;2.73;2.53;;;;;;;2.09;100.00;97187.53;5081720;28;20227;-58
2023/12/27 04:48:30;;;;;;;2.70;2.50;;;;;;;2.00;100.00;97191.47;5081438;28;20203;-57
2023/12/27 04:50:57;;;;;;;4.83;2.87;;;;;;;1.97;100.00;97189.00;5081491;28;20224;-57
2023/12/27 04:53:24;;;;;;;5.40;3.07;;;;;;;2.06;100.00;97185.09;5081294;28;20209;-57
2023/12/27 04:55:51;;;;;;;4.43;2.70;;;;;;;2.02;100.00;97180.94;5081621;28;20202;-57
2023/12/27 04:58:18;;;;;;;3.13;2.50;;;;;;;1.97;100.00;97190.78;5080746;28;20626;-56
2023/12/27 05:00:46;;;;;;;4.60;2.77;;;;;;;1.86;100.00;97196.53;5080852;28;20287;-57
2023/12/27 05:03:13;;;;;;;4.63;2.77;;;;;;;1.81;100.00;97195.91;5080851;28;20688;-57
2023/12/27 05:05:40;;;;;;;3.57;2.70;;;;;;;1.83;100.00;97209.72;5081001;28;20692;-57
2023/12/27 05:08:08;;;;;;;3.73;2.60;;;;;;;1.91;100.00;97207.56;5080518;28;20194;-57
2023/12/27 05:10:34;;;;;;;2.60;2.13;;;;;;;1.80;100.00;97211.63;5081182;28;20216;-57
2023/12/27 05:13:01;;;;;;;3.10;2.30;;;;;;;1.78;100.00;97211.69;5080676;28;20549;-57
2023/12/27 05:15:27;;;;;;;2.93;2.70;;;;;;;1.81;100.00;97214.16;5081143;28;21449;-57
2023/12/27 05:17:58;;;;;;;3.97;3.03;;;;;;;1.77;100.00;97204.78;5081189;28;20635;-56
2023/12/27 05:20:24;;;;;;;3.73;2.90;;;;;;;1.76;100.00;97202.28;5081428;28;20248;-57
2023/12/27 05:22:51;;;;;;;6.03;3.03;;;;;;;1.66;100.00;97201.91;5081667;28;20537;-56
2023/12/27 05:25:18;;;;;;;4.00;3.00;;;;;;;1.75;100.00;97206.66;5083050;28;20226;-56
2023/12/27 05:27:45;;;;;;;3.30;2.63;;;;;;;1.71;100.00;97210.31;5085038;28;20210;-57
2023/12/27 05:30:12;;;;;;;2.67;2.47;;;;;;;1.72;100.00;97206.78;5088626;28;20202;-57
2023/12/27 05:32:39;;;;;;;2.80;2.60;;;;;;;1.80;100.00;97209.03;5102010;28;20202;-57
2023/12/27 05:35:09;;;;;;;3.73;3.03;;;;;;;1.78;100.00;97214.31;5107527;28;20261;-56
2023/12/27 05:37:36;;;;;;;3.90;2.57;;;;;;;1.72;100.00;97217.22;5103102;28;20202;-56
2023/12/27 05:40:03;;;;;;;3.10;2.73;;;;;;;1.75;100.00;97209.25;5104884;28;20265;-56
2023/12/27 05:42:30;;;;;;;4.53;3.00;;;;;;;1.83;100.00;97204.50;5104102;28;20275;-56
2023/12/27 05:44:57;;;;;;;5.07;2.80;;;;;;;1.87;100.00;97205.19;5102443;28;20269;-57
2023/12/27 05:47:23;;;;;;;3.83;2.90;;;;;;;1.87;100.00;97202.59;5084989;28;20235;-57
2023/12/27 05:49:50;;;;;;;4.03;2.90;;;;;;;1.84;100.00;97193.13;5085297;28;20530;-56
2023/12/27 05:52:18;;;;;;;5.47;2.60;;;;;;;1.84;100.00;97195.75;5084716;28;20198;-56
2023/12/27 05:54:45;;;;;;;2.90;2.70;;;;;;;1.94;100.00;97201.38;5085885;28;20210;-57
2023/12/27 05:57:12;;;;;;;3.60;2.60;;;;;;;1.95;100.00;97201.28;5084969;28;20735;-57
2023/12/27 05:59:39;;;;;;;2.80;2.57;;;;;;;1.90;100.00;97198.06;5084252;28;20234;-57
2023/12/27 06:02:06;;;;;;;2.73;2.53;;;;;;;1.86;100.00;97199.13;5084407;28;20333;-56
2023/12/27 06:04:34;;;;;;;3.20;2.37;;;;;;;1.90;100.00;97203.28;5084336;28;20206;-56
2023/12/27 06:07:01;;;;;;;4.23;2.97;;;;;;;1.91;100.00;97207.56;5084719;28;20537;-57
2023/12/27 06:09:31;;;;;;;5.63;2.80;;;;;;;1.93;100.00;97208.34;5084567;28;20202;-57
2023/12/27 06:11:58;;;;;;;5.73;3.00;;;;;;;1.81;100.00;97202.88;5084681;28;20315;-56
2023/12/27 06:14:24;;;;;;;4.40;3.00;;;;;;;1.79;100.00;97205.56;5084104;28;20657;-55
2023/12/27 06:16:52;;;;;;;4.90;3.30;;;;;;;1.81;100.00;97208.09;5084762;28;20526;-55
2023/12/27 06:19:18;;;;;;;3.93;3.20;;;;;;;1.76;100.00;97203.13;5084034;28;20635;-57
2023/12/27 06:21:45;;;;;;;6.10;3.30;;;;;;;1.79;100.00;97213.41;5083162;28;20695;-55
2023/12/27 06:24:11;;;;;;;4.43;3.27;;;;;;;1.83;100.00;97212.34;5083095;28;20206;-56
2023/12/27 06:26:40;;;;;;;5.90;3.63;;;;;;;1.81;100.00;97215.91;5083552;28;20217;-57
2023/12/27 06:29:06;;;;;;;5.63;3.80;;;;;;;1.74;100.00;97215.38;5083425;28;20216;-58
2023/12/27 06:31:34;;;;;;;4.60;3.53;;;;;;;1.68;100.00;97212.22;5083230;28;20669;-56
2023/12/27 06:34:01;;;;;;;3.40;3.10;;;;;;;1.71;100.00;97223.34;5083618;28;20216;-56
2023/12/27 06:36:27;;;;;;;6.87;4.20;;;;;;;1.79;100.00;97231.66;5083245;28;20198;-57
2023/12/27 06:38:55;;;;;;;5.37;4.00;;;;;;;1.75;100.00;97227.50;5082721;28;20662;-56
2023/12/27 06:41:22;;;;;;;3.93;3.63;;;;;;;1.71;100.00;97218.13;5096632;28;20657;-56
2023/12/27 06:43:50;;;;;;;4.23;3.60;;;;;;;1.73;100.00;97223.28;5098882;28;20262;-56
2023/12/27 06:46:17;;;;;;;5.90;4.13;;;;;;;1.69;100.00;97220.00;5099325;28;20253;-57
2023/12/27 06:48:44;;;;;;;4.77;3.90;;;;;;;1.69;100.00;97221.75;5092835;28;20230;-56
2023/12/27 06:51:13;;;;;;;9.80;5.07;;;;;;;1.71;100.00;97225.97;5090999;28;20209;-57
2023/12/27 06:53:40;;;;;;;4.60;4.17;;;;;;;1.64;100.00;97219.34;5089223;28;20557;-56
2023/12/27 06:56:07;;;;;;;5.20;4.60;;;;;;;1.62;100.00;97223.81;5084213;28;20202;-57
2023/12/27 06:58:33;;;;;;;6.07;4.80;;;;;;;1.59;100.00;97221.34;5083108;28;20549;-56
2023/12/27 07:01:01;;;;;;;5.33;4.13;;;;;;;1.60;100.00;97220.41;5083023;28;20242;-57
2023/12/27 07:03:28;;;;;;;7.40;4.50;;;;;;;1.52;100.00;97231.22;5082738;28;20213;-57
2023/12/27 07:05:55;;;;;;;6.53;4.63;;;;;;;1.49;100.00;97231.38;5083591;28;20231;-56
2023/12/27 07:08:24;;;;;;;5.10;4.40;;;;;;;1.52;100.00;97239.97;5082970;28;20266;-57
2023/12/27 07:10:51;;;;;;;5.80;5.27;;;;;;;1.62;100.00;97231.63;5083575;28;20288;-57
2023/12/27 07:13:17;;;;;;;5.67;4.97;;;;;;;1.66;100.00;97233.19;5082657;28;20210;-57
2023/12/27 07:15:44;;;;;;;6.17;5.57;;;;;;;1.62;100.00;97221.22;5083577;28;20210;-56
2023/12/27 07:18:12;;;;;;;6.17;5.23;;;;;;;1.54;100.00;97238.97;5082861;28;20202;-57
2023/12/27 07:20:39;;;;;;;10.57;5.70;;;;;;;1.51;100.00;97228.69;5082861;28;20858;-57
2023/12/27 07:23:06;;;;;;;7.13;5.90;;;;;;;1.61;100.00;97229.94;5082443;28;20638;-57
2023/12/27 07:25:35;;;;;;;5.77;5.17;;;;;;;1.67;100.00;97227.03;5083394;28;20216;-57
2023/12/27 07:28:02;;;;;;;6.27;5.67;;;;;;;1.55;100.00;97225.03;5081933;28;20530;-57
2023/12/27 07:30:29;;;;;;;7.40;6.03;;;;;;;1.47;100.00;97224.53;5082933;28;20202;-57
2023/12/27 07:32:56;;;;;;;6.23;5.43;;;;;;;1.54;100.00;97212.91;5082565;28;20233;-57
2023/12/27 07:35:25;;;;;;;12.30;6.43;;;;;;;1.67;100.00;97214.00;5083231;28;20213;-57
2023/12/27 07:37:52;;;;;;;9.77;7.00;;;;;;;1.67;100.00;97224.41;5082527;28;20202;-56
2023/12/27 07:40:18;;;;;;;5.77;5.13;;;;;;;1.59;100.00;97221.34;5082780;28;20208;-57
2023/12/27 07:42:45;;;;;;;6.30;5.10;;;;;;;1.72;100.00;97217.22;5082671;28;20204;-57
2023/12/27 07:45:16;;;;;;;8.00;5.13;;;;;;;1.82;100.00;97222.81;5082712;28;20195;-57
2023/12/27 07:47:43;;;;;;;7.30;5.07;;;;;;;1.68;100.00;97214.84;5082412;28;20206;-57
2023/12/27 07:50:10;;;;;;;5.43;5.00;;;;;;;1.64;100.00;97214.16;5082618;28;20206;-57
2023/12/27 07:52:38;;;;;;;6.70;4.90;;;;;;;1.72;100.00;97212.00;5082215;28;20210;-56
2023/12/27 07:55:05;;;;;;;7.23;5.10;;;;;;;1.80;100.00;97214.25;5082557;28;20206;-57
2023/12/27 07:57:32;;;;;;;6.27;5.13;;;;;;;1.77;100.00;97215.22;5082187;28;20215;-56
2023/12/27 08:00:01;;;;;;;7.77;4.80;;;;;;;1.67;100.00;97224.41;5081781;28;20566;-57
2023/12/27 08:02:28;;;;;;;6.17;5.50;;;;;;;1.63;100.00;97237.69;5082390;28;20217;-58
2023/12/27 08:04:55;;;;;;;6.07;5.03;;;;;;;1.78;100.00;97237.78;5081636;28;20201;-57
2023/12/27 08:07:21;;;;;;;5.57;4.97;;;;;;;1.91;100.00;97246.69;5081719;28;20561;-56
2023/12/27 08:09:49;;;;;;;6.67;5.73;;;;;;;2.04;100.00;97241.72;5081695;28;20218;-57
2023/12/27 08:12:16;;;;;;;7.30;5.17;;;;;;;2.09;100.00;97242.31;5082167;28;20201;-57
2023/12/27 08:14:44;;;;;;;6.43;5.07;;;;;;;2.07;100.00;97244.16;5081161;28;20205;-57
2023/12/27 08:17:11;;;;;;;6.03;5.43;;;;;;;2.14;100.00;97249.91;5082430;28;20212;-56
2023/12/27 08:19:37;;;;;;;6.23;5.60;;;;;;;2.22;100.00;97247.78;5081417;28;20201;-57
2023/12/27 08:22:04;;;;;;;9.30;5.83;;;;;;;2.28;100.00;97247.44;5082257;28;20216;-57
2023/12/27 08:24:31;;;;;;;6.57;5.97;;;;;;;2.36;100.00;97235.72;5081388;28;20202;-57
2023/12/27 08:27:02;;;;;;;6.30;5.70;;;;;;;2.34;100.00;97242.75;5081857;28;20601;-56
2023/12/27 08:29:29;;;;;;;7.27;5.90;;;;;;;2.35;100.00;97246.22;5081164;28;20634;-57
2023/12/27 08:31:56;;;;;;;6.60;5.97;;;;;;;2.36;100.00;97245.31;5081919;28;20289;-58
2023/12/27 08:34:22;;;;;;;7.80;6.57;;;;;;;2.36;100.00;97250.53;5081857;28;20202;-57
2023/12/27 08:36:49;;;;;;;8.40;6.27;;;;;;;2.40;100.00;97250.28;5081915;28;20201;-56
2023/12/27 08:39:16;;;;;;;7.13;5.87;;;;;;;2.41;100.00;97251.97;5081879;28;20213;-57
2023/12/27 08:41:43;;;;;;;7.57;6.07;;;;;;;2.50;100.00;97259.34;5081290;28;20294;-57
2023/12/27 08:44:12;;;;;;;7.63;6.47;;;;;;;2.50;100.00;97248.06;5081100;28;20707;-57
2023/12/27 08:46:41;;;;;;;6.87;6.17;;;;;;;2.45;100.00;97252.66;5081044;28;20217;-57
2023/12/27 08:49:08;;;;;;;6.70;6.10;;;;;;;2.48;100.00;97242.03;5081779;28;20194;-57
2023/12/27 08:51:35;;;;;;;7.77;6.60;;;;;;;2.59;100.00;97242.34;5080206;28;20333;-57
2023/12/27 08:54:02;;;;;;;7.07;6.33;;;;;;;2.65;100.00;97247.25;5080449;28;20202;-57
2023/12/27 08:56:28;;;;;;;8.70;6.47;;;;;;;2.71;100.00;97235.63;5081327;28;20226;-57
2023/12/27 08:58:55;;;;;;;8.23;6.70;;;;;;;2.90;100.00;97246.81;5080709;28;20201;-57
2023/12/27 09:01:23;;;;;;;7.40;6.37;;;;;;;3.29;100.00;97247.28;5081805;28;20234;-57
2023/12/27 09:03:50;;;;;;;10.40;9.30;;;;;;;3.84;100.00;97246.81;5094328;28;20644;-56
2023/12/27 09:06:16;;;;;;;7.90;6.70;;;;;;;4.65;100.00;97246.34;5102980;28;20259;-57
2023/12/27 09:08:43;;;;;;;7.47;6.60;;;;;;;5.00;100.00;97247.66;5104156;28;20700;-56
2023/12/27 09:11:10;;;;;;;7.37;6.20;;;;;;;5.15;100.00;97248.50;5091327;28;20215;-58
2023/12/27 09:13:37;;;;;;;5.83;5.33;;;;;;;4.94;100.00;97248.06;5085746;28;20202;-57
2023/12/27 09:16:05;;;;;;;6.10;5.53;;;;;;;4.99;100.00;97248.59;5085184;28;20212;-57
2023/12/27 09:18:33;;;;;;;6.90;5.77;;;;;;;4.77;100.00;97243.00;5084450;28;20296;-57
2023/12/27 09:20:59;;;;;;;5.67;5.10;;;;;;;4.85;100.00;97243.34;5085420;28;20210;-57
2023/12/27 09:23:26;;;;;;;6.90;5.53;;;;;;;4.94;100.00;97248.06;5085390;28;20541;-57
2023/12/27 09:25:53;;;;;;;5.87;5.30;;;;;;;5.10;100.00;97242.69;5085201;28;20202;-56
2023/12/27 09:28:21;;;;;;;5.67;5.13;;;;;;;5.31;100.00;97241.38;5084818;28;20224;-57
2023/12/27 09:30:48;;;;;;;6.50;5.53;;;;;;;5.64;100.00;97243.63;5085011;28;20198;-57
2023/12/27 09:33:15;;;;;;;6.60;5.90;;;;;;;5.89;100.00;97251.66;5085515;28;20203;-57
2023/12/27 09:35:42;;;;;;;6.03;5.43;;;;;;;6.02;100.00;97248.22;5089127;28;20206;-56
2023/12/27 09:38:09;;;;;;;6.27;5.67;;;;;;;6.25;100.00;97242.28;5089250;28;20194;-57
2023/12/27 09:40:35;;;;;;;7.90;5.87;;;;;;;5.78;100.00;97240.97;5088490;28;20285;-57
2023/12/27 09:43:03;;;;;;;6.77;6.03;;;;;;;5.73;100.00;97235.19;5089607;28;20297;-57
2023/12/27 09:45:31;;;;;;;7.70;5.80;;;;;;;5.76;100.00;97237.59;5087722;28;20206;-55
2023/12/27 09:47:59;;;;;;;7.40;5.90;;;;;;;5.75;100.00;97235.91;5085817;28;20319;-57
2023/12/27 09:50:27;;;;;;;7.10;6.00;;;;;;;5.61;100.00;97227.25;5085240;28;20198;-56
2023/12/27 09:52:57;;;;;;;6.20;5.60;;;;;;;5.48;100.00;97227.19;5085457;28;20215;-55
2023/12/27 09:55:24;;;;;;;6.90;5.83;;;;;;;5.53;100.00;97219.03;5085300;28;20226;-57
2023/12/27 09:57:51;;;;;;;6.63;5.90;;;;;;;5.64;100.00;97211.31;5085622;28;20195;-55
2023/12/27 10:00:19;;;;;;;6.20;5.60;;;;;;;5.76;100.00;97216.63;5084999;28;20241;-57
2023/12/27 10:02:46;;;;;;;6.87;6.27;;;;;;;6.06;100.00;97208.53;5083403;28;20309;-57
2023/12/27 10:05:16;;;;;;;6.77;5.63;;;;;;;6.44;100.00;97203.34;5085534;28;20217;-56
2023/12/27 10:07:43;;;;;;;7.87;5.93;;;;;;;6.63;100.00;97193.25;5085312;28;20214;-57
2023/12/27 10:10:11;;;;;;;6.67;5.63;;;;;;;6.97;100.00;97189.97;5084395;28;20198;-57
2023/12/27 10:12:41;;;;;;;5.97;5.33;;;;;;;7.37;100.00;97179.22;5084862;28;20207;-58
2023/12/27 10:15:08;;;;;;;6.90;5.47;;;;;;;7.43;100.00;97181.44;5082361;28;20221;-57
2023/12/27 10:17:35;;;;;;;5.63;5.10;;;;;;;8.01;100.00;97184.09;5084432;28;20202;-58
2023/12/27 10:20:02;;;;;;;6.03;5.30;;;;;;;8.34;96.56;97172.88;5083576;28;20718;-56
2023/12/27 10:22:29;;;;;;;6.27;5.40;;;;;;;8.77;93.68;97175.69;5083991;28;20297;-56
2023/12/27 10:24:57;;;;;;;7.73;5.30;;;;;;;8.80;93.09;97164.06;5083113;28;20237;-57
2023/12/27 10:27:24;;;;;;;5.67;5.10;;;;;;;8.83;90.81;97159.38;5084012;28;20226;-57
2023/12/27 10:29:51;;;;;;;8.90;5.47;;;;;;;8.84;89.62;97158.44;5083134;28;20626;-57
2023/12/27 10:32:18;;;;;;;5.40;4.90;;;;;;;8.94;88.97;97169.94;5083743;28;20206;-57
2023/12/27 10:34:45;;;;;;;8.93;5.27;;;;;;;9.16;87.85;97170.91;5083729;28;20210;-56
2023/12/27 10:37:13;;;;;;;5.60;5.10;;;;;;;8.89;90.47;97164.19;5083996;28;20291;-56
2023/12/27 10:39:44;;;;;;;6.27;5.63;;;;;;;9.10;88.39;97153.75;5082921;28;20194;-56
2023/12/27 10:42:16;;;;;;;7.17;5.80;;;;;;;8.96;90.03;97149.53;5083675;28;20339;-56
2023/12/27 10:44:46;;;;;;;6.23;5.63;;;;;;;9.11;88.54;97141.38;5084012;28;20216;-56
2023/12/27 10:47:17;;;;;;;7.33;5.90;;;;;;;8.92;88.62;97140.22;5083914;28;20300;-57
2023/12/27 10:49:48;;;;;;;6.57;5.37;;;;;;;9.14;90.04;97135.88;5083724;28;20204;-56
2023/12/27 10:52:17;;;;;;;8.27;6.33;;;;;;;9.25;86.91;97138.47;5083495;28;20198;-56
2023/12/27 10:54:45;;;;;;;6.60;5.80;;;;;;;9.11;88.02;97120.28;5083774;28;20247;-56
2023/12/27 10:57:16;;;;;;;6.20;5.60;;;;;;;8.73;88.09;97116.25;5083914;28;20209;-56
2023/12/27 10:59:47;;;;;;;6.33;5.73;;;;;;;8.87;89.14;97108.09;5082748;28;20279;-57
2023/12/27 11:02:14;;;;;;;6.43;5.87;;;;;;;8.71;93.16;97102.34;5083399;28;20197;-57
2023/12/27 11:04:44;;;;;;;9.47;6.40;;;;;;;8.08;96.03;97096.75;5083244;28;20285;-57
2023/12/27 11:07:11;;;;;;;5.90;5.07;;;;;;;8.00;97.95;97089.44;5083167;28;20249;-57
2023/12/27 11:09:38;;;;;;;6.40;5.80;;;;;;;7.76;98.18;97081.56;5083886;28;20591;-56
2023/12/27 11:12:06;;;;;;;6.50;5.90;;;;;;;7.55;99.93;97069.16;5083369;28;20213;-56
2023/12/27 11:14:33;;;;;;;6.03;5.50;;;;;;;7.26;100.00;97080.03;5082843;28;20285;-56
2023/12/27 11:17:03;;;;;;;6.23;5.63;;;;;;;7.22;100.00;97072.50;5083128;28;20214;-56
2023/12/27 11:19:29;;;;;;;5.97;5.47;;;;;;;7.13;100.00;97066.13;5091390;28;20205;-57
2023/12/27 11:21:57;;;;;;;6.00;5.20;;;;;;;7.11;100.00;97069.81;5097494;28;20208;-57
2023/12/27 11:24:23;;;;;;;5.90;5.20;;;;;;;7.01;100.00;97067.84;5091202;28;20314;-56
2023/12/27 11:26:59;;;;;;;5.63;5.13;;;;;;;6.92;100.00;97063.25;5082790;28;20208;-57
2023/12/27 11:29:26;;;;;;;6.53;5.37;;;;;;;6.84;100.00;97064.75;5082231;28;20200;-57
2023/12/27 11:31:54;;;;;;;5.43;4.80;;;;;;;6.89;100.00;97058.22;5083125;28;20204;-56
2023/12/27 11:34:23;;;;;;;5.50;5.00;;;;;;;6.87;100.00;97044.34;5082630;28;20300;-57